ETEB/QOB METAR and TAF weather

Enter ICAO airport designator
Station Type Date Time Source
ETEB METAR 2022/09/26 08:55 UTC NOAA

ETEB 260855Z AUTO 24008KT 9999 CLR 12/10 A2977 RMK AO2 SLP095 T01150099 57008 $


Station Type Date Time Source
ETEB Decoded METAR 2022/09/26 08:55 UTC NOAA

Ansbach / Katterbach, Germany (ETEB) 49-19N 010-38E 476M
Sep 26, 2022 - 04:55 AM EDT / 2022.09.26 0855 UTC
Wind: from the WSW (240 degrees) at 9 MPH (8 KT):0
Visibility: greater than 7 mile(s):0
Sky conditions: clear
Temperature: 52.7 F (11.5 C)
Dew Point: 49.8 F (9.9 C)
Relative Humidity: 89%
Pressure (altimeter): 29.77 in. Hg (1008 hPa)
Pressure tendency: 0.02 inches (0.8 hPa) lower than three hours ago
ob: ETEB 260855Z AUTO 24008KT 9999 CLR 12/10 A2977 RMK AO2 SLP095 T01150099 57008
cycle: 9

Station Type Date Time Source
ETEB TAF 2022/09/26 08:53 UTC NOAA

TAF
AMD ETEB 260800Z 2608/2713 25006KT 9999 BKN095 QNH2981INS
BECMG 2612/2613 25010G15KT 9000 -SHRA BKN030 620456 QNH2972INS
BECMG 2616/2617 24010G15KT 9000 -SHRA BKN030 OVC035 620456 QNH2968INS
BECMG 2618/2619 21010G15KT 9999 NSW OVC030 620456 QNH2964INS
BECMG 2621/2622 22010G20KT 9999 BKN025 OVC030 620456 QNH2958INS
BECMG 2704/2705 26009KT 5000 -SHRA OVC005 620456 QNH2946INS
BECMG 2712/2713 27010G20KT 5000 -SHRA BKN030 QNH2948INS TX/2611Z TN7/2705Z

Example: see airport list